Time;durP1;ratioP1;P1;durP2;ratioP2;P2;SDS_P1;SDS_P2;PMS_P1;PMS_P2;Temp;Humidity;BMP_temperature;BMP_pressure;BME280_temperature;BME280_humidity;BME280_pressure;Samples;Min_cycle;Max_cycle;Signal;HPM_P1;HPM_P2
2022/10/28 00:01:05;;;;;;;11.60;6.83;;;17.50;1.00;;;;;;5077508;28;20450;-61
2022/10/28 00:03:33;;;;;;;14.67;5.80;;;17.50;1.00;;;;;;5077386;28;20556;-61
2022/10/28 00:06:06;;;;;;;7.57;5.70;;;17.50;1.00;;;;;;5077067;28;20464;-61
2022/10/28 00:08:33;;;;;;;15.10;6.50;;;17.50;1.00;;;;;;5077262;28;20465;-61
2022/10/28 00:11:07;;;;;;;10.03;5.43;;;17.50;1.00;;;;;;5077638;28;20550;-61
2022/10/28 00:13:35;;;;;;;9.63;5.43;;;17.40;1.00;;;;;;5077406;28;20476;-61
2022/10/28 00:16:11;;;;;;;8.93;6.17;;;17.50;1.00;;;;;;5077573;28;20457;-61
2022/10/28 00:18:39;;;;;;;16.63;6.37;;;17.50;1.00;;;;;;5077482;28;20551;-61
2022/10/28 00:21:09;;;;;;;8.93;6.60;;;17.50;1.00;;;;;;5077101;28;20460;-61
2022/10/28 00:23:36;;;;;;;10.73;5.87;;;17.40;1.00;;;;;;5077537;28;20440;-61
2022/10/28 00:26:07;;;;;;;12.53;5.97;;;17.50;1.00;;;;;;5076698;28;20495;-61
2022/10/28 00:28:39;;;;;;;12.97;5.57;;;17.40;1.00;;;;;;5077121;28;20465;-61
2022/10/28 00:31:10;;;;;;;10.73;6.10;;;17.40;1.00;;;;;;5076917;28;20465;-62
2022/10/28 00:33:38;;;;;;;12.53;5.20;;;17.40;1.00;;;;;;5076988;28;20439;-61
2022/10/28 00:36:10;;;;;;;12.73;5.60;;;17.40;1.00;;;;;;5077245;28;20457;-61
2022/10/28 00:38:41;;;;;;;10.17;6.13;;;17.40;1.00;;;;;;5077156;28;20468;-61
2022/10/28 00:41:13;;;;;;;8.10;5.43;;;17.50;1.00;;;;;;5076554;28;20762;-61
2022/10/28 00:43:42;;;;;;;18.83;5.37;;;17.60;1.00;;;;;;5077255;28;20459;-61
2022/10/28 00:46:33;;;;;;;9.27;5.80;;;17.60;1.00;;;;;;5077302;28;20488;-61
2022/10/28 00:49:04;;;;;;;9.60;5.00;;;17.70;1.00;;;;;;5077314;28;20455;-61
2022/10/28 00:51:33;;;;;;;8.67;5.43;;;17.70;1.00;;;;;;5076911;28;20461;-61
2022/10/28 00:54:04;;;;;;;14.10;5.73;;;17.80;1.00;;;;;;5076957;28;20461;-61
2022/10/28 00:56:36;;;;;;;7.37;5.13;;;17.80;1.00;;;;;;5076954;28;20457;-61
2022/10/28 00:59:08;;;;;;;7.63;4.80;;;17.70;1.00;;;;;;5076656;28;20472;-61
2022/10/28 01:01:37;;;;;;;13.13;5.77;;;17.70;1.00;;;;;;5076458;28;20457;-61
2022/10/28 01:04:05;;;;;;;10.93;5.90;;;17.60;1.00;;;;;;5076622;28;20468;-61
2022/10/28 01:06:34;;;;;;;9.53;5.67;;;17.50;1.00;;;;;;5076306;28;20474;-61
2022/10/28 01:09:01;;;;;;;8.47;5.40;;;17.50;1.00;;;;;;5076267;28;20461;-61
2022/10/28 01:11:50;;;;;;;12.60;5.03;;;17.50;1.00;;;;;;5080786;28;20520;-62
2022/10/28 01:14:30;;;;;;;11.73;5.50;;;17.50;1.00;;;;;;5081182;28;20559;-61
2022/10/28 01:17:23;;;;;;;10.53;6.60;;;17.40;1.00;;;;;;5080637;28;20760;-61
2022/10/28 01:20:25;;;;;;;11.43;5.43;;;17.40;1.00;;;;;;5081059;28;20479;-61
2022/10/28 01:23:01;;;;;;;10.20;5.07;;;17.40;1.00;;;;;;5080782;28;20704;-61
2022/10/28 01:26:14;;;;;;;8.70;5.10;;;17.40;1.00;;;;;;5080653;28;20537;-61
2022/10/28 01:29:13;;;;;;;8.40;4.77;;;17.50;1.00;;;;;;5080165;28;20461;-61
2022/10/28 01:31:46;;;;;;;11.33;5.67;;;17.40;1.00;;;;;;5080540;28;20464;-61
2022/10/28 01:34:26;;;;;;;10.97;5.10;;;17.50;1.00;;;;;;5080675;28;20539;-62
2022/10/28 01:37:00;;;;;;;17.87;5.20;;;17.70;1.00;;;;;;5080001;28;20487;-62
2022/10/28 01:39:33;;;;;;;9.20;4.90;;;17.80;1.00;;;;;;5077016;28;20536;-62
2022/10/28 01:42:21;;;;;;;9.60;5.50;;;17.90;1.00;;;;;;5080449;28;20436;-61
2022/10/28 01:44:55;;;;;;;8.63;5.27;;;18.00;1.00;;;;;;5079959;28;20878;-62
2022/10/28 01:47:28;;;;;;;12.37;5.33;;;18.00;1.00;;;;;;5080053;28;20468;-61
2022/10/28 01:50:06;;;;;;;10.23;4.40;;;18.10;1.00;;;;;;5080279;28;20461;-61
2022/10/28 01:52:33;;;;;;;13.50;5.60;;;18.10;1.00;;;;;;5079775;28;20478;-61
2022/10/28 01:55:08;;;;;;;8.70;4.87;;;18.10;1.00;;;;;;5079924;28;20435;-61
2022/10/28 01:57:37;;;;;;;9.93;4.90;;;18.10;1.00;;;;;;5080183;28;20436;-62
2022/10/28 02:00:06;;;;;;;17.40;5.20;;;18.20;1.00;;;;;;5079631;28;20920;-61
2022/10/28 02:02:37;;;;;;;12.33;5.20;;;18.20;99.90;;;;;;5075822;28;21054;-61
2022/10/28 02:05:07;;;;;;;13.60;5.23;;;18.30;99.90;;;;;;5059813;28;20868;-61
2022/10/28 02:07:34;;;;;;;10.40;5.20;;;18.30;99.90;;;;;;5059855;28;20454;-62
2022/10/28 02:10:13;;;;;;;11.00;5.07;;;18.40;99.90;;;;;;5059878;28;20436;-62
2022/10/28 02:12:40;;;;;;;12.90;4.53;;;18.40;99.90;;;;;;5059134;28;20484;-62
2022/10/28 02:15:36;;;;;;;9.80;5.30;;;18.40;99.90;;;;;;5059530;28;20981;-61
2022/10/28 02:18:23;;;;;;;6.93;4.53;;;18.30;99.90;;;;;;5059621;28;20462;-62
2022/10/28 02:20:55;;;;;;;11.20;5.10;;;18.40;99.90;;;;;;5059209;28;20462;-61
2022/10/28 02:23:28;;;;;;;12.07;4.90;;;18.40;99.90;;;;;;5059509;28;20472;-62
2022/10/28 02:25:59;;;;;;;8.53;4.57;;;18.40;99.90;;;;;;5059469;28;20489;-61
2022/10/28 02:28:38;;;;;;;10.83;4.17;;;18.50;99.90;;;;;;5059113;28;20461;-62
2022/10/28 02:31:10;;;;;;;8.03;5.23;;;18.50;99.90;;;;;;5059338;28;20853;-61
2022/10/28 02:33:41;;;;;;;16.10;5.97;;;18.50;99.90;;;;;;5059145;28;20462;-61
2022/10/28 02:36:12;;;;;;;13.80;5.40;;;18.50;99.90;;;;;;5059347;28;20877;-61
2022/10/28 02:38:43;;;;;;;9.47;4.37;;;18.50;99.90;;;;;;5059241;28;20441;-62
2022/10/28 02:41:16;;;;;;;13.00;5.13;;;18.50;99.90;;;;;;5059008;28;20487;-61
2022/10/28 02:43:46;;;;;;;8.70;4.67;;;18.40;99.90;;;;;;5058689;28;20489;-62
2022/10/28 02:46:15;;;;;;;10.23;4.90;;;18.30;99.90;;;;;;5059410;28;20786;-61
2022/10/28 02:48:47;;;;;;;12.43;4.83;;;18.20;99.90;;;;;;5058906;28;20767;-61
2022/10/28 02:51:18;;;;;;;10.67;4.80;;;18.10;99.90;;;;;;5058859;28;20466;-61
2022/10/28 02:53:56;;;;;;;11.33;5.47;;;18.10;99.90;;;;;;5059461;28;20462;-61
2022/10/28 02:56:23;;;;;;;7.33;5.00;;;18.10;99.90;;;;;;5058269;28;20522;-61
2022/10/28 02:58:50;;;;;;;8.77;4.60;;;18.10;99.90;;;;;;5058388;28;20560;-61
2022/10/28 03:01:18;;;;;;;11.60;5.63;;;18.10;99.90;;;;;;5058670;28;20800;-61
2022/10/28 03:03:46;;;;;;;17.03;5.67;;;17.90;99.90;;;;;;5058446;28;20470;-61
2022/10/28 03:06:14;;;;;;;7.73;5.57;;;17.80;1.00;;;;;;5058431;28;20583;-61
2022/10/28 03:08:41;;;;;;;15.47;5.13;;;17.60;1.00;;;;;;5057623;28;20466;-61
2022/10/28 03:11:09;;;;;;;9.83;5.20;;;17.60;1.00;;;;;;5058570;28;20500;-61
2022/10/28 03:13:38;;;;;;;7.33;4.63;;;17.60;1.00;;;;;;5058432;28;20468;-62
2022/10/28 03:16:06;;;;;;;13.43;5.57;;;17.50;1.00;;;;;;5058134;28;20527;-62
2022/10/28 03:18:33;;;;;;;7.50;4.63;;;17.50;1.00;;;;;;5058074;28;20466;-61
2022/10/28 03:21:02;;;;;;;15.00;4.83;;;17.50;1.00;;;;;;5057822;28;20469;-62
2022/10/28 03:23:29;;;;;;;15.57;4.97;;;17.60;1.00;;;;;;5057558;28;20759;-61
2022/10/28 03:25:56;;;;;;;13.03;5.17;;;17.50;1.00;;;;;;5057936;28;20493;-61
2022/10/28 03:28:26;;;;;;;8.37;5.10;;;17.50;1.00;;;;;;5058022;28;20902;-61
2022/10/28 03:30:53;;;;;;;10.17;4.70;;;17.50;1.00;;;;;;5058202;28;20883;-61
2022/10/28 03:33:20;;;;;;;10.93;4.80;;;17.50;1.00;;;;;;5057334;28;20483;-61
2022/10/28 03:35:50;;;;;;;17.43;5.77;;;17.60;1.00;;;;;;5058253;28;20755;-61
2022/10/28 03:38:21;;;;;;;10.70;5.10;;;17.60;1.00;;;;;;5059926;28;20461;-61
2022/10/28 03:40:48;;;;;;;12.57;6.30;;;17.70;1.00;;;;;;5058419;28;20462;-62
2022/10/28 03:43:15;;;;;;;10.13;5.30;;;17.70;1.00;;;;;;5058392;28;20488;-61
2022/10/28 03:45:42;;;;;;;8.40;5.47;;;17.80;1.00;;;;;;5057839;28;20965;-61
2022/10/28 03:48:09;;;;;;;11.77;5.37;;;17.80;1.00;;;;;;5058012;28;20462;-61
2022/10/28 03:50:37;;;;;;;16.47;5.57;;;17.80;1.00;;;;;;5057326;28;20886;-61
2022/10/28 03:53:04;;;;;;;11.87;4.50;;;17.70;1.00;;;;;;5057887;28;20472;-61
2022/10/28 03:55:32;;;;;;;10.17;5.10;;;17.70;1.00;;;;;;5060234;28;20878;-61
2022/10/28 03:58:04;;;;;;;9.70;4.67;;;17.60;1.00;;;;;;5058190;28;20437;-61
2022/10/28 04:00:31;;;;;;;10.60;5.27;;;17.60;1.00;;;;;;5057799;28;20462;-61
2022/10/28 04:02:58;;;;;;;15.60;6.30;;;17.60;1.00;;;;;;5057988;28;20496;-61
2022/10/28 04:05:25;;;;;;;9.57;5.57;;;17.60;1.00;;;;;;5056344;28;20553;-61
2022/10/28 04:07:55;;;;;;;10.40;5.77;;;17.50;1.00;;;;;;5057809;28;20484;-61
2022/10/28 04:10:22;;;;;;;11.33;5.27;;;17.50;1.00;;;;;;5057454;28;20496;-62
2022/10/28 04:12:51;;;;;;;12.70;5.20;;;17.50;1.00;;;;;;5057581;28;20553;-61
2022/10/28 04:15:18;;;;;;;10.90;5.67;;;17.50;1.00;;;;;;5057515;28;20465;-61
2022/10/28 04:17:45;;;;;;;8.50;5.10;;;17.40;1.00;;;;;;5072801;28;20453;-61
2022/10/28 04:20:13;;;;;;;12.80;5.60;;;17.40;1.00;;;;;;5075690;28;20527;-61
2022/10/28 04:22:41;;;;;;;11.13;4.87;;;17.50;1.00;;;;;;5076154;28;20453;-61
2022/10/28 04:25:09;;;;;;;10.50;5.50;;;17.50;1.00;;;;;;5075580;28;20454;-61
2022/10/28 04:27:36;;;;;;;8.43;5.70;;;17.40;1.00;;;;;;5075528;28;20763;-61
2022/10/28 04:30:09;;;;;;;16.33;5.67;;;17.40;1.00;;;;;;5075455;28;20461;-61
2022/10/28 04:32:36;;;;;;;8.73;5.60;;;17.30;1.00;;;;;;5073994;28;20457;-61
2022/10/28 04:35:04;;;;;;;10.40;5.60;;;17.20;1.00;;;;;;5075640;28;20432;-61
2022/10/28 04:37:31;;;;;;;11.57;5.37;;;17.10;1.00;;;;;;5073330;28;20454;-61
2022/10/28 04:39:59;;;;;;;16.73;6.73;;;17.10;1.00;;;;;;5077212;28;20462;-61
2022/10/28 04:42:26;;;;;;;10.60;5.23;;;17.00;1.00;;;;;;5077401;28;20901;-61
2022/10/28 04:44:53;;;;;;;14.10;6.37;;;17.10;1.00;;;;;;5076480;28;20462;-61
2022/10/28 04:47:22;;;;;;;18.57;6.23;;;17.20;1.00;;;;;;5077237;28;20464;-61
2022/10/28 04:49:49;;;;;;;8.83;5.17;;;17.20;1.00;;;;;;5077038;28;20941;-61
2022/10/28 04:52:16;;;;;;;9.00;4.80;;;17.20;1.00;;;;;;5076979;28;20556;-61
2022/10/28 04:54:44;;;;;;;9.13;4.90;;;17.10;1.00;;;;;;5077173;28;20729;-61
2022/10/28 04:57:11;;;;;;;10.60;5.20;;;17.10;1.00;;;;;;5077113;28;20457;-61
2022/10/28 04:59:39;;;;;;;12.40;4.77;;;17.00;1.00;;;;;;5076093;28;20841;-61
2022/10/28 05:02:06;;;;;;;15.57;6.50;;;17.00;1.00;;;;;;5076563;28;20894;-61
2022/10/28 05:04:37;;;;;;;7.83;5.47;;;16.90;1.00;;;;;;5076161;28;20755;-61
2022/10/28 05:07:05;;;;;;;10.63;5.40;;;16.90;1.00;;;;;;5075344;28;20495;-61
2022/10/28 05:09:35;;;;;;;10.57;5.50;;;16.90;1.00;;;;;;5074811;28;20523;-61
2022/10/28 05:12:05;;;;;;;10.57;5.60;;;16.90;1.00;;;;;;5075319;28;20766;-61
2022/10/28 05:14:32;;;;;;;9.70;5.33;;;16.90;1.00;;;;;;5075903;28;20756;-61
2022/10/28 05:16:59;;;;;;;7.50;5.07;;;16.80;1.00;;;;;;5075913;28;20436;-61
2022/10/28 05:19:27;;;;;;;9.77;5.57;;;16.80;1.00;;;;;;5075629;28;20824;-61
2022/10/28 05:21:55;;;;;;;13.03;5.13;;;16.90;1.00;;;;;;5074942;28;20468;-61
2022/10/28 05:24:24;;;;;;;10.47;6.07;;;16.90;1.00;;;;;;5075097;28;20461;-61
2022/10/28 05:26:52;;;;;;;10.23;5.20;;;17.00;1.00;;;;;;5075146;28;20464;-61
2022/10/28 05:29:20;;;;;;;10.33;6.10;;;17.00;1.00;;;;;;5074140;28;20506;-61
2022/10/28 05:31:47;;;;;;;11.40;5.10;;;17.10;1.00;;;;;;5074865;28;20466;-61
2022/10/28 05:34:14;;;;;;;10.83;5.50;;;17.10;1.00;;;;;;5074577;28;20551;-61
2022/10/28 05:36:42;;;;;;;17.07;5.67;;;17.10;1.00;;;;;;5071936;28;20483;-62
2022/10/28 05:39:11;;;;;;;12.63;5.90;;;17.10;1.00;;;;;;5075957;28;20468;-63
2022/10/28 05:41:40;;;;;;;11.00;5.87;;;17.10;1.00;;;;;;5075594;28;20442;-63
2022/10/28 05:44:10;;;;;;;10.73;6.00;;;17.10;1.00;;;;;;5076913;28;20515;-62
2022/10/28 05:46:37;;;;;;;12.00;6.23;;;17.10;1.00;;;;;;5075723;28;20481;-62
2022/10/28 05:49:04;;;;;;;16.13;7.40;;;17.10;1.00;;;;;;5075740;28;20536;-63
2022/10/28 05:51:31;;;;;;;12.30;5.90;;;17.10;1.00;;;;;;5073534;28;20800;-62
2022/10/28 05:53:59;;;;;;;7.60;5.67;;;17.00;1.00;;;;;;5075117;28;20439;-62
2022/10/28 05:56:27;;;;;;;13.10;6.03;;;17.00;1.00;;;;;;5075857;28;20432;-62
2022/10/28 05:58:54;;;;;;;20.20;5.90;;;16.90;1.00;;;;;;5076931;28;20432;-62
2022/10/28 06:01:22;;;;;;;10.63;5.97;;;16.80;1.00;;;;;;5079270;28;20447;-62
2022/10/28 06:03:49;;;;;;;11.17;6.00;;;16.80;1.00;;;;;;5079233;28;20493;-62
2022/10/28 06:06:16;;;;;;;12.23;5.63;;;16.80;1.00;;;;;;5078844;28;20461;-62
2022/10/28 06:08:43;;;;;;;12.47;5.93;;;16.90;1.00;;;;;;5079449;28;20543;-62
2022/10/28 06:11:13;;;;;;;10.80;6.10;;;16.80;1.00;;;;;;5079295;28;20493;-62
2022/10/28 06:13:42;;;;;;;12.60;6.07;;;16.80;1.00;;;;;;5079915;28;20457;-62
2022/10/28 06:16:09;;;;;;;15.33;6.27;;;16.80;1.00;;;;;;5079477;28;20467;-62
2022/10/28 06:18:37;;;;;;;13.30;6.47;;;16.80;1.00;;;;;;5079291;28;20484;-62
2022/10/28 06:21:05;;;;;;;13.57;6.20;;;16.80;1.00;;;;;;5066694;28;20458;-62
2022/10/28 06:23:32;;;;;;;14.70;6.50;;;16.80;1.00;;;;;;5068486;28;20436;-62
2022/10/28 06:26:01;;;;;;;7.60;5.90;;;16.80;1.00;;;;;;5071388;28;20470;-62
2022/10/28 06:28:29;;;;;;;10.00;5.70;;;16.80;1.00;;;;;;5067841;28;20564;-62
2022/10/28 06:31:03;;;;;;;12.10;5.70;;;16.90;1.00;;;;;;5071007;28;20458;-63
2022/10/28 06:33:31;;;;;;;9.60;5.00;;;16.90;1.00;;;;;;5066620;28;20535;-62
2022/10/28 06:35:59;;;;;;;12.10;6.33;;;17.00;1.00;;;;;;5066267;28;20427;-62
2022/10/28 06:38:30;;;;;;;14.13;6.20;;;17.10;1.00;;;;;;5070632;28;20428;-62
2022/10/28 06:41:02;;;;;;;9.47;6.13;;;17.10;1.00;;;;;;5074183;28;20718;-63
2022/10/28 06:43:29;;;;;;;11.40;5.73;;;17.20;1.00;;;;;;5076399;28;20465;-62
2022/10/28 06:45:56;;;;;;;11.33;5.23;;;17.30;1.00;;;;;;5075927;28;20767;-62
2022/10/28 06:48:25;;;;;;;9.00;5.93;;;17.40;1.00;;;;;;5075322;28;20485;-62
2022/10/28 06:50:56;;;;;;;10.07;5.30;;;17.50;1.00;;;;;;5075721;28;21041;-62
2022/10/28 06:53:24;;;;;;;10.47;5.10;;;17.50;1.00;;;;;;5077287;28;20461;-63
2022/10/28 06:55:54;;;;;;;16.03;6.60;;;17.60;1.00;;;;;;5078177;28;20434;-62
2022/10/28 06:58:21;;;;;;;13.23;5.70;;;17.60;1.00;;;;;;5077843;28;20532;-62
2022/10/28 07:00:49;;;;;;;10.60;6.50;;;17.60;1.00;;;;;;5078243;28;20465;-62
2022/10/28 07:03:17;;;;;;;12.27;5.90;;;17.70;1.00;;;;;;5077860;28;20458;-63
2022/10/28 07:05:47;;;;;;;10.03;5.97;;;17.70;1.00;;;;;;5077143;28;20537;-62
2022/10/28 07:08:15;;;;;;;13.37;5.83;;;17.70;1.00;;;;;;5077726;28;20497;-62
2022/10/28 07:10:46;;;;;;;13.90;6.00;;;17.70;1.00;;;;;;5078726;28;20524;-62
2022/10/28 07:13:13;;;;;;;15.30;6.37;;;17.70;1.00;;;;;;5079132;28;20471;-62
2022/10/28 07:15:40;;;;;;;8.23;5.73;;;17.70;1.00;;;;;;5078219;28;20747;-62
2022/10/28 07:18:07;;;;;;;10.80;5.97;;;17.80;1.00;;;;;;5078352;28;20469;-63
2022/10/28 07:20:37;;;;;;;8.40;5.00;;;17.80;1.00;;;;;;5078785;28;20749;-62
2022/10/28 07:23:05;;;;;;;10.70;5.10;;;17.90;1.00;;;;;;5078815;28;20461;-62
2022/10/28 07:25:38;;;;;;;11.50;5.63;;;17.90;1.00;;;;;;5078365;28;20775;-62
2022/10/28 07:28:05;;;;;;;10.60;5.63;;;18.00;1.00;;;;;;5078620;28;20891;-62
2022/10/28 07:30:33;;;;;;;11.50;5.53;;;18.10;1.00;;;;;;5077114;28;20887;-62
2022/10/28 07:33:00;;;;;;;13.53;5.33;;;18.20;1.00;;;;;;5076720;28;20484;-63
2022/10/28 07:35:28;;;;;;;11.53;6.17;;;18.20;1.00;;;;;;5077249;28;20931;-63
2022/10/28 07:37:56;;;;;;;9.53;6.20;;;18.30;99.90;;;;;;5077623;28;20453;-62
2022/10/28 07:40:28;;;;;;;10.30;5.87;;;18.30;1.00;;;;;;5077496;28;20463;-63
2022/10/28 07:42:56;;;;;;;11.80;5.40;;;18.40;99.90;;;;;;5078288;28;20461;-62
2022/10/28 07:45:23;;;;;;;9.57;5.30;;;18.50;99.90;;;;;;5078073;28;20461;-63
2022/10/28 07:47:53;;;;;;;9.70;5.93;;;18.70;99.90;;;;;;5077862;28;20929;-62
2022/10/28 07:50:21;;;;;;;8.70;4.90;;;18.80;99.90;;;;;;5077618;28;20461;-63
2022/10/28 07:52:48;;;;;;;9.57;5.40;;;18.90;99.90;;;;;;5076644;28;20836;-64
2022/10/28 07:55:15;;;;;;;11.77;5.70;;;18.90;99.90;;;;;;5076788;28;20473;-64
2022/10/28 07:57:44;;;;;;;15.63;5.47;;;18.90;99.90;;;;;;5077684;28;20551;-63
2022/10/28 08:00:14;;;;;;;12.53;5.90;;;18.90;99.90;;;;;;5077722;28;20814;-63
2022/10/28 08:02:42;;;;;;;13.13;6.00;;;19.00;99.90;;;;;;5077323;28;20460;-63
2022/10/28 08:05:09;;;;;;;14.37;5.60;;;19.10;99.90;;;;;;5077788;28;20472;-62
2022/10/28 08:07:37;;;;;;;10.93;5.43;;;19.20;99.90;;;;;;5077456;28;20601;-63
2022/10/28 08:10:05;;;;;;;11.47;5.23;;;19.30;99.90;;;;;;5068377;28;20891;-63
2022/10/28 08:12:34;;;;;;;12.33;5.80;;;19.20;99.90;;;;;;5057361;28;20516;-63
2022/10/28 08:15:08;;;;;;;12.60;5.10;;;19.30;99.90;;;;;;5057107;28;20895;-63
2022/10/28 08:17:38;;;;;;;11.50;5.10;;;19.30;99.90;;;;;;5056553;28;20493;-63
2022/10/28 08:20:09;;;;;;;13.70;6.40;;;19.40;99.90;;;;;;5068635;28;20473;-62
2022/10/28 08:22:36;;;;;;;11.50;5.97;;;19.50;99.90;;;;;;5076482;28;20818;-62
2022/10/28 08:25:03;;;;;;;8.63;5.80;;;19.80;99.90;;;;;;5076717;28;20439;-62
2022/10/28 08:27:33;;;;;;;9.77;4.70;;;20.10;99.90;;;;;;5076775;28;20925;-60
2022/10/28 08:30:02;;;;;;;11.67;5.07;;;20.20;99.90;;;;;;5074419;28;20450;-62
2022/10/28 08:32:31;;;;;;;9.83;5.97;;;20.30;99.90;;;;;;5076676;28;20485;-62
2022/10/28 08:34:59;;;;;;;9.40;5.50;;;20.60;99.90;;;;;;5077024;28;20464;-62
2022/10/28 08:37:29;;;;;;;7.33;5.50;;;20.60;99.90;;;;;;5077095;28;20431;-62
2022/10/28 08:40:07;;;;;;;12.83;5.57;;;20.70;99.90;;;;;;5076679;28;20468;-63
2022/10/28 08:42:40;;;;;;;15.60;5.83;;;20.90;99.90;;;;;;5077013;28;20466;-62
2022/10/28 08:45:25;;;;;;;12.87;6.23;;;20.90;99.90;;;;;;5076920;28;20442;-62
2022/10/28 08:48:07;;;;;;;10.50;6.67;;;21.00;99.90;;;;;;5076673;28;20897;-63
2022/10/28 08:50:50;;;;;;;12.50;5.83;;;20.90;99.90;;;;;;5076925;28;20461;-63
2022/10/28 08:53:24;;;;;;;10.40;6.10;;;20.80;99.90;;;;;;5076289;28;20465;-64
2022/10/28 08:55:54;;;;;;;9.00;5.10;;;20.70;99.90;;;;;;5076208;28;20555;-63
2022/10/28 08:58:26;;;;;;;11.10;5.50;;;20.50;99.90;;;;;;5074258;28;20461;-63
2022/10/28 09:00:58;;;;;;;15.07;5.40;;;20.40;99.90;;;;;;5076655;28;20519;-63
2022/10/28 09:03:30;;;;;;;9.90;5.77;;;20.70;99.90;;;;;;5076116;28;20465;-62
2022/10/28 09:06:02;;;;;;;8.87;5.50;;;21.10;99.90;;;;;;5075520;28;20489;-63
2022/10/28 09:08:33;;;;;;;12.77;5.10;;;21.60;99.90;;;;;;5067254;28;20497;-63
2022/10/28 09:11:32;;;;;;;9.50;5.67;;;21.90;99.90;;;;;;5056751;28;20489;-62
2022/10/28 09:14:12;;;;;;;10.73;5.23;;;22.20;99.90;;;;;;5057017;28;20755;-62
2022/10/28 09:16:49;;;;;;;18.43;5.00;;;22.60;99.90;;;;;;5056550;28;20560;-62
2022/10/28 09:19:31;;;;;;;11.87;6.03;;;23.00;99.90;;;;;;5057008;28;20958;-63
2022/10/28 09:22:08;;;;;;;13.70;6.10;;;23.10;99.90;;;;;;5056771;28;20747;-63
2022/10/28 09:24:44;;;;;;;8.27;5.30;;;23.00;99.90;;;;;;5055121;28;20458;-63
2022/10/28 09:27:22;;;;;;;16.40;5.40;;;22.90;99.90;;;;;;5055463;28;20821;-61
2022/10/28 09:30:03;;;;;;;13.60;5.60;;;23.10;99.90;;;;;;5056101;28;20512;-63
2022/10/28 09:32:40;;;;;;;7.80;5.97;;;23.10;99.90;;;;;;5060396;28;20466;-62
2022/10/28 09:35:17;;;;;;;18.03;4.90;;;23.20;99.90;;;;;;5060177;28;20466;-63
2022/10/28 09:37:49;;;;;;;9.33;4.67;;;23.10;99.90;;;;;;5059940;28;20450;-62
2022/10/28 09:40:20;;;;;;;7.37;5.53;;;23.40;99.90;;;;;;5060380;28;20825;-63
2022/10/28 09:43:00;;;;;;;11.47;5.60;;;23.40;99.90;;;;;;5076681;28;20769;-62
2022/10/28 09:45:31;;;;;;;12.60;6.00;;;23.50;99.90;;;;;;5078820;28;20480;-63
2022/10/28 09:48:03;;;;;;;16.40;5.23;;;23.60;99.90;;;;;;5080076;28;20464;-63
2022/10/28 09:50:34;;;;;;;16.83;4.93;;;23.70;99.90;;;;;;5079306;28;20451;-63
2022/10/28 09:53:14;;;;;;;9.43;5.53;;;24.00;99.90;;;;;;5079586;28;20771;-63
2022/10/28 09:55:41;;;;;;;12.27;5.03;;;24.20;99.90;;;;;;5079322;28;20559;-63
2022/10/28 09:58:15;;;;;;;11.00;5.70;;;23.80;99.90;;;;;;5079776;28;20487;-63
2022/10/28 10:00:42;;;;;;;11.63;5.20;;;24.00;99.90;;;;;;5075985;28;20473;-63
2022/10/28 10:03:10;;;;;;;15.50;5.07;;;23.90;99.90;;;;;;5077242;28;20711;-63
2022/10/28 10:05:45;;;;;;;13.33;6.30;;;24.00;99.90;;;;;;5075479;28;20504;-62
2022/10/28 10:08:14;;;;;;;11.90;5.70;;;23.60;99.90;;;;;;5077838;28;20511;-63
2022/10/28 10:10:51;;;;;;;11.37;5.63;;;23.50;99.90;;;;;;5078642;28;20523;-62
2022/10/28 10:13:33;;;;;;;17.10;5.77;;;23.50;99.90;;;;;;5078982;28;21176;-62
2022/10/28 10:16:04;;;;;;;13.23;5.77;;;23.40;99.90;;;;;;5078921;28;20468;-62
2022/10/28 10:18:34;;;;;;;9.20;5.43;;;23.40;99.90;;;;;;5079598;28;20458;-62
2022/10/28 10:21:02;;;;;;;11.33;6.00;;;23.70;99.90;;;;;;5079925;28;20515;-62
2022/10/28 10:23:32;;;;;;;12.97;6.17;;;24.00;99.90;;;;;;5079079;28;20881;-62
2022/10/28 10:26:04;;;;;;;11.70;6.17;;;24.50;99.90;;;;;;5078895;28;20492;-62
2022/10/28 10:28:36;;;;;;;9.47;4.63;;;24.80;99.90;;;;;;5078496;28;20496;-63
2022/10/28 10:31:06;;;;;;;10.97;5.57;;;25.00;99.90;;;;;;5079365;28;20797;-62
2022/10/28 10:33:36;;;;;;;11.63;5.73;;;25.00;99.90;;;;;;5078930;28;20548;-63
2022/10/28 10:36:19;;;;;;;12.80;5.90;;;25.00;99.90;;;;;;5078375;28;20556;-63
2022/10/28 10:38:49;;;;;;;12.70;5.93;;;25.20;99.90;;;;;;5079021;28;20453;-62
2022/10/28 10:41:34;;;;;;;17.17;6.33;;;25.10;99.90;;;;;;5079015;28;20518;-61
2022/10/28 10:44:23;;;;;;;14.40;5.60;;;25.40;99.90;;;;;;5078597;28;20461;-62
2022/10/28 10:47:21;;;;;;;11.13;5.57;;;25.40;99.90;;;;;;5079320;28;20461;-62
2022/10/28 10:49:50;;;;;;;10.20;5.07;;;25.30;99.90;;;;;;5078767;28;20493;-62
2022/10/28 10:52:24;;;;;;;11.77;6.00;;;25.30;99.90;;;;;;5079277;28;20916;-61
2022/10/28 10:55:01;;;;;;;13.43;4.50;;;25.10;99.90;;;;;;5079086;28;20437;-62
2022/10/28 10:57:29;;;;;;;11.30;4.93;;;25.10;99.90;;;;;;5078569;28;20436;-62
2022/10/28 10:59:57;;;;;;;10.50;5.17;;;25.20;99.90;;;;;;5077049;28;20489;-62
2022/10/28 11:02:31;;;;;;;9.90;4.90;;;25.20;99.90;;;;;;5077255;28;20461;-62
2022/10/28 11:05:02;;;;;;;10.00;5.50;;;25.60;99.90;;;;;;5077616;28;20457;-61
2022/10/28 11:07:31;;;;;;;9.67;5.47;;;25.90;99.90;;;;;;5077626;28;20780;-62
2022/10/28 11:10:01;;;;;;;16.77;6.93;;;25.80;99.90;;;;;;5078847;28;20517;-63
2022/10/28 11:12:34;;;;;;;12.50;5.13;;;25.90;99.90;;;;;;5078341;28;20440;-62
2022/10/28 11:15:03;;;;;;;11.60;5.13;;;26.00;99.90;;;;;;5077178;28;20526;-62
2022/10/28 11:17:34;;;;;;;13.13;5.70;;;26.10;99.90;;;;;;5076935;28;20461;-62
2022/10/28 11:20:24;;;;;;;7.30;4.60;;;25.70;99.90;;;;;;5077093;28;20464;-61
2022/10/28 11:23:06;;;;;;;12.30;5.60;;;25.50;99.90;;;;;;5078253;28;20501;-62
2022/10/28 11:25:37;;;;;;;13.23;5.90;;;25.50;99.90;;;;;;5077018;28;20484;-61
2022/10/28 11:28:21;;;;;;;10.57;5.47;;;25.50;99.90;;;;;;5077571;28;20493;-62
2022/10/28 11:31:07;;;;;;;9.57;5.60;;;25.60;99.90;;;;;;5077566;28;20875;-62
2022/10/28 11:33:46;;;;;;;12.50;5.33;;;26.00;99.90;;;;;;5076004;28;20461;-63
2022/10/28 11:36:19;;;;;;;9.80;5.33;;;26.00;99.90;;;;;;5077123;28;20468;-62
2022/10/28 11:39:03;;;;;;;12.97;4.90;;;25.60;99.90;;;;;;5077841;28;20877;-63
2022/10/28 11:41:43;;;;;;;11.33;5.30;;;25.50;99.90;;;;;;5077821;28;20889;-63
2022/10/28 11:44:23;;;;;;;10.27;4.93;;;25.90;99.90;;;;;;5077188;28;20461;-62
2022/10/28 11:46:58;;;;;;;12.73;5.53;;;26.20;99.90;;;;;;5078031;28;20439;-62
2022/10/28 11:49:43;;;;;;;9.20;5.20;;;26.50;99.90;;;;;;5076595;28;20558;-63
2022/10/28 11:52:20;;;;;;;8.40;4.67;;;26.60;99.90;;;;;;5077017;28;21334;-64
2022/10/28 11:55:05;;;;;;;23.07;6.03;;;26.40;99.90;;;;;;5075516;28;20453;-63
2022/10/28 11:57:44;;;;;;;10.87;5.00;;;26.40;99.90;;;;;;5075113;28;20496;-63
2022/10/28 12:00:38;;;;;;;16.27;4.67;;;26.30;99.90;;;;;;5075207;28;20449;-63
2022/10/28 12:03:29;;;;;;;9.60;5.57;;;26.30;99.90;;;;;;5074579;28;20559;-64
2022/10/28 12:06:08;;;;;;;13.13;5.00;;;26.10;99.90;;;;;;5074872;28;20435;-64
2022/10/28 12:08:59;;;;;;;9.90;5.33;;;25.80;99.90;;;;;;5076214;28;20759;-63
2022/10/28 12:11:39;;;;;;;13.20;5.30;;;25.90;99.90;;;;;;5073170;28;20452;-62
2022/10/28 12:14:14;;;;;;;13.27;5.57;;;26.00;99.90;;;;;;5073688;28;20432;-63
2022/10/28 12:16:48;;;;;;;12.73;5.90;;;26.10;99.90;;;;;;5075418;28;20868;-62
2022/10/28 12:19:24;;;;;;;15.53;5.80;;;26.20;99.90;;;;;;5076145;28;20759;-62
2022/10/28 12:22:03;;;;;;;11.57;6.30;;;26.10;99.90;;;;;;5075697;28;20459;-63
2022/10/28 12:24:34;;;;;;;12.80;5.07;;;26.00;99.90;;;;;;5074767;28;20439;-63
2022/10/28 12:27:10;;;;;;;11.27;4.57;;;25.90;99.90;;;;;;5073558;28;20453;-62
2022/10/28 12:29:43;;;;;;;8.90;5.53;;;26.20;99.90;;;;;;5075629;28;20546;-62
2022/10/28 12:32:13;;;;;;;15.63;5.47;;;26.50;99.90;;;;;;5075452;28;20453;-62
2022/10/28 12:34:47;;;;;;;13.50;5.77;;;26.40;99.90;;;;;;5073456;28;20424;-63
2022/10/28 12:37:21;;;;;;;16.70;6.17;;;26.40;99.90;;;;;;5077250;28;20465;-62
2022/10/28 12:39:56;;;;;;;14.70;6.07;;;26.30;99.90;;;;;;5076901;28;20885;-62
2022/10/28 12:42:29;;;;;;;15.20;6.23;;;26.20;99.90;;;;;;5077397;28;20732;-62
2022/10/28 12:45:04;;;;;;;8.10;4.67;;;26.30;99.90;;;;;;5077679;28;20938;-62
2022/10/28 12:47:39;;;;;;;10.63;5.40;;;26.30;99.90;;;;;;5076898;28;20887;-62
2022/10/28 12:50:17;;;;;;;12.60;5.10;;;26.30;99.90;;;;;;5076963;28;20758;-63
2022/10/28 12:52:53;;;;;;;13.87;5.10;;;26.10;99.90;;;;;;5077048;28;20461;-62
2022/10/28 12:55:35;;;;;;;12.90;5.47;;;26.00;99.90;;;;;;5068443;28;20875;-63
2022/10/28 12:58:06;;;;;;;9.60;5.57;;;25.70;99.90;;;;;;5057623;28;20939;-62
2022/10/28 13:00:39;;;;;;;9.23;4.93;;;25.80;99.90;;;;;;5073552;28;20485;-62
2022/10/28 13:03:15;;;;;;;13.43;5.23;;;25.50;99.90;;;;;;5073321;28;20467;-62
2022/10/28 13:05:48;;;;;;;12.60;5.27;;;25.50;99.90;;;;;;5074123;28;20859;-62
2022/10/28 13:08:46;;;;;;;12.80;4.97;;;25.30;99.90;;;;;;5077193;28;20435;-62
2022/10/28 13:11:54;;;;;;;11.83;5.47;;;25.20;99.90;;;;;;5080247;28;20459;-62